Time;durP1;ratioP1;P1;durP2;ratioP2;P2;SDS_P1;SDS_P2;PMS_P1;PMS_P2;Temp;Humidity;BMP_temperature;BMP_pressure;BME280_temperature;BME280_humidity;BME280_pressure;Samples;Min_cycle;Max_cycle;Signal;HPM_P1;HPM_P2
2021/10/20 00:02:04;;;;;;;;;14.50;14.50;;;;;;;;5016379;28;45311;-78
2021/10/20 00:04:30;;;;;;;;;14.25;13.75;;;;;;;;5016299;28;45229;-77
2021/10/20 00:06:55;;;;;;;;;17.00;14.50;;;;;;;;5017218;28;46646;-75
2021/10/20 00:09:20;;;;;;;;;17.50;13.50;;;;;;;;5017865;28;45217;-80
2021/10/20 00:11:47;;;;;;;;;15.75;12.75;;;;;;;;5018055;28;45236;-78
2021/10/20 00:14:12;;;;;;;;;15.25;14.50;;;;;;;;5018451;28;45244;-80
2021/10/20 00:16:37;;;;;;;;;16.50;15.25;;;;;;;;5017086;28;45394;-80
2021/10/20 00:19:03;;;;;;;;;17.25;14.00;;;;;;;;5019843;28;45225;-77
2021/10/20 00:21:29;;;;;;;;;14.00;13.75;;;;;;;;5021898;28;45175;-78
2021/10/20 00:23:55;;;;;;;;;15.75;13.75;;;;;;;;5019504;28;45391;-79
2021/10/20 00:26:20;;;;;;;;;14.00;13.00;;;;;;;;5019539;28;45370;-77
2021/10/20 00:28:45;;;;;;;;;13.00;13.00;;;;;;;;5019991;28;45382;-79
2021/10/20 00:31:11;;;;;;;;;14.50;12.50;;;;;;;;5017703;28;45344;-77
2021/10/20 00:33:36;;;;;;;;;14.75;11.75;;;;;;;;5017395;28;45472;-76
2021/10/20 00:36:01;;;;;;;;;15.25;12.00;;;;;;;;5016339;28;45994;-75
2021/10/20 00:38:27;;;;;;;;;14.75;12.25;;;;;;;;5016336;28;45904;-77
2021/10/20 00:40:52;;;;;;;;;15.75;13.50;;;;;;;;5014739;28;45337;-75
2021/10/20 00:43:21;;;;;;;;;13.75;10.75;;;;;;;;5014619;28;45475;-77
2021/10/20 00:45:47;;;;;;;;;8.00;8.00;;;;;;;;5013821;28;46334;-74
2021/10/20 00:48:12;;;;;;;;;12.50;12.00;;;;;;;;5015315;28;45333;-75
2021/10/20 00:50:38;;;;;;;;;11.00;11.00;;;;;;;;5015482;28;45233;-75
2021/10/20 00:53:03;;;;;;;;;11.75;10.50;;;;;;;;5015484;28;45594;-77
2021/10/20 00:55:29;;;;;;;;;10.50;10.00;;;;;;;;5017671;28;47515;-77
2021/10/20 00:57:54;;;;;;;;;14.25;12.25;;;;;;;;5017735;28;45227;-75
2021/10/20 01:00:19;;;;;;;;;10.75;9.00;;;;;;;;5015726;28;45425;-76
2021/10/20 01:02:45;;;;;;;;;10.50;9.50;;;;;;;;5015551;28;45373;-77
2021/10/20 01:05:11;;;;;;;;;13.00;13.00;;;;;;;;5015009;28;45320;-76
2021/10/20 01:07:37;;;;;;;;;11.50;9.50;;;;;;;;5015806;28;45311;-75
2021/10/20 01:10:06;;;;;;;;;10.75;10.00;;;;;;;;5016238;28;45325;-77
2021/10/20 01:12:32;;;;;;;;;12.25;11.25;;;;;;;;5015070;28;45387;-77
2021/10/20 01:14:58;;;;;;;;;17.00;13.00;;;;;;;;5014975;28;45297;-77
2021/10/20 01:17:23;;;;;;;;;13.00;11.75;;;;;;;;5015144;28;45233;-77
2021/10/20 01:19:50;;;;;;;;;13.00;13.00;;;;;;;;5015246;28;45546;-76
2021/10/20 01:22:15;;;;;;;;;13.00;12.25;;;;;;;;5014921;28;45371;-78
2021/10/20 01:24:40;;;;;;;;;9.25;9.25;;;;;;;;5014630;28;46796;-77
2021/10/20 01:27:06;;;;;;;;;12.00;12.00;;;;;;;;5015009;28;45540;-77
2021/10/20 01:29:31;;;;;;;;;10.75;10.25;;;;;;;;5018645;28;45457;-76
2021/10/20 01:31:59;;;;;;;;;13.00;12.00;;;;;;;;5018967;28;45512;-76
2021/10/20 01:34:24;;;;;;;;;12.00;10.75;;;;;;;;5018747;28;46856;-77
2021/10/20 01:36:51;;;;;;;;;15.25;11.00;;;;;;;;5018664;28;45754;-77
2021/10/20 01:39:17;;;;;;;;;12.50;11.50;;;;;;;;5019096;28;45254;-76
2021/10/20 01:41:42;;;;;;;;;11.25;11.00;;;;;;;;5019563;28;45166;-77
2021/10/20 01:44:08;;;;;;;;;15.75;11.50;;;;;;;;5019251;28;47097;-76
2021/10/20 01:46:33;;;;;;;;;14.75;11.75;;;;;;;;5021474;28;45244;-77
2021/10/20 01:49:00;;;;;;;;;14.75;12.75;;;;;;;;5022265;28;45640;-75
2021/10/20 01:51:25;;;;;;;;;10.25;9.75;;;;;;;;5021684;28;45394;-76
2021/10/20 01:53:50;;;;;;;;;11.00;11.00;;;;;;;;5019197;28;47469;-75
2021/10/20 01:56:16;;;;;;;;;14.25;10.75;;;;;;;;5019159;28;45451;-74
2021/10/20 01:58:42;;;;;;;;;17.50;12.00;;;;;;;;5017473;28;45411;-77
2021/10/20 02:01:08;;;;;;;;;12.50;11.25;;;;;;;;5018473;28;45323;-76
2021/10/20 02:03:35;;;;;;;;;12.25;10.50;;;;;;;;5017634;28;45565;-76
2021/10/20 02:06:01;;;;;;;;;11.75;11.00;;;;;;;;5018106;28;45334;-76
2021/10/20 02:08:26;;;;;;;;;11.50;11.50;;;;;;;;5018138;28;45830;-77
2021/10/20 02:10:51;;;;;;;;;8.75;8.00;;;;;;;;5018018;28;45515;-75
2021/10/20 02:13:17;;;;;;;;;12.25;11.00;;;;;;;;5018041;28;46335;-78
2021/10/20 02:15:42;;;;;;;;;15.75;14.00;;;;;;;;5016661;28;45398;-77
2021/10/20 02:18:07;;;;;;;;;11.25;10.75;;;;;;;;5017798;28;45230;-76
2021/10/20 02:20:32;;;;;;;;;15.00;14.25;;;;;;;;5016617;28;45447;-75
2021/10/20 02:22:58;;;;;;;;;16.50;13.75;;;;;;;;5017611;28;45233;-77
2021/10/20 02:25:23;;;;;;;;;13.00;11.00;;;;;;;;5017408;28;45376;-76
2021/10/20 02:27:48;;;;;;;;;16.25;14.75;;;;;;;;5017546;28;45404;-76
2021/10/20 02:30:14;;;;;;;;;14.25;12.50;;;;;;;;5017647;28;45349;-77
2021/10/20 02:32:39;;;;;;;;;14.50;13.50;;;;;;;;5017200;28;45561;-75
2021/10/20 02:35:06;;;;;;;;;13.75;13.25;;;;;;;;5017413;28;45475;-77
2021/10/20 02:37:31;;;;;;;;;13.25;12.75;;;;;;;;5018238;28;45387;-75
2021/10/20 02:39:56;;;;;;;;;13.50;13.50;;;;;;;;5017768;28;45633;-76
2021/10/20 02:42:22;;;;;;;;;13.75;12.25;;;;;;;;5018857;28;46712;-76
2021/10/20 02:44:47;;;;;;;;;18.75;14.00;;;;;;;;5017851;28;45569;-77
2021/10/20 02:47:12;;;;;;;;;16.00;15.00;;;;;;;;5017607;28;45448;-76
2021/10/20 02:49:37;;;;;;;;;14.25;13.00;;;;;;;;5017591;28;45375;-75
2021/10/20 02:52:03;;;;;;;;;16.50;13.00;;;;;;;;5017313;28;45487;-75
2021/10/20 02:54:28;;;;;;;;;13.00;11.50;;;;;;;;5017626;28;45415;-77
2021/10/20 02:56:53;;;;;;;;;10.50;10.50;;;;;;;;5017297;28;45345;-76
2021/10/20 02:59:18;;;;;;;;;14.50;13.25;;;;;;;;5017436;28;45462;-76
2021/10/20 03:01:44;;;;;;;;;11.25;11.25;;;;;;;;5016983;28;46420;-75
2021/10/20 03:04:09;;;;;;;;;12.00;11.25;;;;;;;;5017012;28;45408;-76
2021/10/20 03:06:34;;;;;;;;;13.50;13.50;;;;;;;;5017119;28;45292;-75
2021/10/20 03:08:59;;;;;;;;;15.25;11.75;;;;;;;;5016296;28;45591;-77
2021/10/20 03:11:25;;;;;;;;;11.50;10.75;;;;;;;;5016948;28;46207;-76
2021/10/20 03:13:50;;;;;;;;;14.00;12.25;;;;;;;;5017136;28;45257;-76
2021/10/20 03:16:16;;;;;;;;;14.25;12.25;;;;;;;;5017571;28;45245;-77
2021/10/20 03:18:41;;;;;;;;;16.75;13.00;;;;;;;;5018068;28;45657;-77
2021/10/20 03:21:06;;;;;;;;;11.00;11.00;;;;;;;;5019136;28;45781;-76
2021/10/20 03:23:31;;;;;;;;;13.75;13.75;;;;;;;;5018440;28;45466;-76
2021/10/20 03:25:57;;;;;;;;;14.75;13.50;;;;;;;;5016787;28;45230;-78
2021/10/20 03:28:22;;;;;;;;;14.75;14.75;;;;;;;;5016480;28;45210;-76
2021/10/20 03:30:47;;;;;;;;;17.75;16.00;;;;;;;;5016273;28;45358;-76
2021/10/20 03:33:12;;;;;;;;;14.25;12.00;;;;;;;;5016237;28;45228;-75
2021/10/20 03:35:38;;;;;;;;;7.50;7.50;;;;;;;;5016050;28;45331;-75
2021/10/20 03:38:05;;;;;;;;;16.50;13.50;;;;;;;;5017121;28;45303;-75
2021/10/20 03:40:31;;;;;;;;;11.75;11.75;;;;;;;;5016876;28;45976;-75
2021/10/20 03:42:56;;;;;;;;;13.00;12.25;;;;;;;;5018046;28;45519;-77
2021/10/20 03:45:21;;;;;;;;;12.75;11.00;;;;;;;;5019479;28;45274;-75
2021/10/20 03:47:46;;;;;;;;;13.00;11.50;;;;;;;;5019314;28;45538;-75
2021/10/20 03:50:12;;;;;;;;;14.75;13.00;;;;;;;;5017914;28;46739;-75
2021/10/20 03:52:37;;;;;;;;;13.50;13.50;;;;;;;;5016390;28;45357;-75
2021/10/20 03:55:05;;;;;;;;;17.50;16.00;;;;;;;;5015368;28;45431;-75
2021/10/20 03:57:37;;;;;;;;;16.75;14.00;;;;;;;;5016746;28;45485;-75
2021/10/20 04:00:04;;;;;;;;;17.25;14.75;;;;;;;;5017161;28;46267;-77
2021/10/20 04:02:29;;;;;;;;;18.25;14.00;;;;;;;;5017414;28;45382;-75
2021/10/20 04:04:54;;;;;;;;;14.50;12.00;;;;;;;;5017672;28;45272;-75
2021/10/20 04:07:20;;;;;;;;;14.75;14.25;;;;;;;;5016754;28;45358;-75
2021/10/20 04:09:45;;;;;;;;;15.00;15.00;;;;;;;;5016118;28;45302;-75
2021/10/20 04:12:10;;;;;;;;;13.50;13.50;;;;;;;;5015015;28;45289;-75
2021/10/20 04:14:36;;;;;;;;;13.25;13.25;;;;;;;;5015144;28;45424;-75
2021/10/20 04:17:01;;;;;;;;;16.75;15.25;;;;;;;;5014691;28;45632;-77
2021/10/20 04:19:26;;;;;;;;;13.50;13.00;;;;;;;;5015701;28;46060;-77
2021/10/20 04:21:51;;;;;;;;;16.50;14.25;;;;;;;;5015885;28;45360;-78
2021/10/20 04:24:17;;;;;;;;;15.00;15.00;;;;;;;;5016403;28;45275;-78
2021/10/20 04:26:42;;;;;;;;;14.00;13.00;;;;;;;;5016294;28;45304;-78
2021/10/20 04:29:07;;;;;;;;;14.50;14.50;;;;;;;;5016044;28;45524;-77
2021/10/20 04:31:32;;;;;;;;;15.00;13.00;;;;;;;;5015753;28;45386;-76
2021/10/20 04:33:58;;;;;;;;;17.75;14.25;;;;;;;;5016175;28;45257;-76
2021/10/20 04:36:23;;;;;;;;;13.75;13.00;;;;;;;;5015413;28;45479;-76
2021/10/20 04:38:48;;;;;;;;;15.75;14.75;;;;;;;;5014892;28;46279;-76
2021/10/20 04:41:13;;;;;;;;;16.50;13.50;;;;;;;;5015813;28;45291;-77
2021/10/20 04:43:38;;;;;;;;;16.00;13.50;;;;;;;;5015849;28;45187;-74
2021/10/20 04:46:04;;;;;;;;;17.75;15.75;;;;;;;;5016001;28;45183;-76
2021/10/20 04:48:29;;;;;;;;;14.50;13.25;;;;;;;;5014896;28;45472;-76
2021/10/20 04:50:54;;;;;;;;;14.75;14.75;;;;;;;;5015270;28;45397;-76
2021/10/20 04:53:19;;;;;;;;;13.25;12.25;;;;;;;;5014252;28;45345;-75
2021/10/20 04:55:45;;;;;;;;;15.25;12.25;;;;;;;;5015601;28;45443;-76
2021/10/20 04:58:10;;;;;;;;;14.50;12.50;;;;;;;;5015054;28;45570;-75
2021/10/20 05:00:36;;;;;;;;;14.00;13.50;;;;;;;;5014472;28;45301;-75
2021/10/20 05:03:01;;;;;;;;;14.00;11.50;;;;;;;;5018651;28;45422;-75
2021/10/20 05:05:27;;;;;;;;;14.50;12.25;;;;;;;;5018826;28;45538;-75
2021/10/20 05:07:53;;;;;;;;;13.75;10.75;;;;;;;;5018362;28;45796;-76
2021/10/20 05:10:20;;;;;;;;;18.00;14.00;;;;;;;;5018473;28;45327;-75
2021/10/20 05:12:45;;;;;;;;;17.25;14.00;;;;;;;;5018844;28;45257;-76
2021/10/20 05:15:12;;;;;;;;;17.00;15.25;;;;;;;;5019338;28;45490;-76
2021/10/20 05:17:37;;;;;;;;;13.25;12.00;;;;;;;;5018974;28;45520;-76
2021/10/20 05:20:03;;;;;;;;;14.00;14.00;;;;;;;;5018339;28;45179;-75
2021/10/20 05:22:28;;;;;;;;;12.00;10.00;;;;;;;;5017415;28;45370;-75
2021/10/20 05:24:53;;;;;;;;;14.00;14.00;;;;;;;;5019715;28;45665;-76
2021/10/20 05:27:18;;;;;;;;;16.50;14.00;;;;;;;;5019001;28;46299;-75
2021/10/20 05:29:44;;;;;;;;;17.50;15.75;;;;;;;;5019268;28;45397;-75
2021/10/20 05:32:09;;;;;;;;;14.25;13.50;;;;;;;;5019777;28;45328;-75
2021/10/20 05:34:34;;;;;;;;;16.00;14.25;;;;;;;;5018101;28;45236;-76
2021/10/20 05:36:59;;;;;;;;;12.00;11.50;;;;;;;;5018778;28;45389;-76
2021/10/20 05:39:24;;;;;;;;;13.25;11.25;;;;;;;;5018588;28;45282;-76
2021/10/20 05:41:50;;;;;;;;;19.00;16.00;;;;;;;;5018287;28;45425;-75
2021/10/20 05:44:16;;;;;;;;;14.00;12.00;;;;;;;;5018284;28;45683;-77
2021/10/20 05:46:41;;;;;;;;;14.00;13.00;;;;;;;;5018302;28;45436;-76
2021/10/20 05:49:07;;;;;;;;;15.75;14.00;;;;;;;;5018385;28;45344;-76
2021/10/20 05:51:32;;;;;;;;;17.50;16.50;;;;;;;;5018479;28;45465;-77
2021/10/20 05:53:58;;;;;;;;;15.00;14.25;;;;;;;;5018204;28;45323;-76
2021/10/20 05:56:23;;;;;;;;;14.25;14.00;;;;;;;;5017785;28;45650;-76
2021/10/20 05:58:48;;;;;;;;;14.25;13.75;;;;;;;;5018333;28;45466;-74
2021/10/20 06:01:13;;;;;;;;;14.75;14.75;;;;;;;;5018533;28;45417;-77
2021/10/20 06:03:39;;;;;;;;;14.00;13.25;;;;;;;;5018647;28;45531;-76
2021/10/20 06:06:04;;;;;;;;;15.50;15.50;;;;;;;;5018318;28;45367;-74
2021/10/20 06:08:29;;;;;;;;;15.50;13.75;;;;;;;;5019014;28;45608;-75
2021/10/20 06:10:54;;;;;;;;;16.00;14.50;;;;;;;;5019598;28;45246;-77
2021/10/20 06:13:20;;;;;;;;;17.00;15.25;;;;;;;;5018408;28;45423;-75
2021/10/20 06:15:45;;;;;;;;;17.00;15.00;;;;;;;;5018944;28;46181;-77
2021/10/20 06:18:11;;;;;;;;;14.25;13.75;;;;;;;;5019359;28;45252;-77
2021/10/20 06:20:36;;;;;;;;;20.25;17.25;;;;;;;;5018188;28;45311;-77
2021/10/20 06:23:02;;;;;;;;;15.25;14.00;;;;;;;;5018370;28;45526;-76
2021/10/20 06:25:28;;;;;;;;;13.75;12.75;;;;;;;;5017942;28;45418;-75
2021/10/20 06:27:53;;;;;;;;;14.25;13.25;;;;;;;;5017318;28;45239;-75
2021/10/20 06:30:19;;;;;;;;;16.00;15.00;;;;;;;;5018163;28;45212;-75
2021/10/20 06:32:45;;;;;;;;;14.50;12.75;;;;;;;;5016977;28;45648;-77
2021/10/20 06:35:11;;;;;;;;;16.25;14.75;;;;;;;;5016819;28;48361;-77
2021/10/20 06:37:37;;;;;;;;;11.75;11.75;;;;;;;;5018148;28;45363;-75
2021/10/20 06:40:03;;;;;;;;;15.00;13.00;;;;;;;;5018063;28;45369;-76
2021/10/20 06:42:28;;;;;;;;;17.75;16.50;;;;;;;;5018449;28;45549;-75
2021/10/20 06:44:56;;;;;;;;;14.75;14.75;;;;;;;;5018025;28;45460;-75
2021/10/20 06:47:21;;;;;;;;;16.25;16.00;;;;;;;;5018077;28;45495;-75
2021/10/20 06:49:46;;;;;;;;;16.25;14.00;;;;;;;;5016235;28;45243;-76
2021/10/20 06:52:12;;;;;;;;;11.75;11.75;;;;;;;;5017909;28;45325;-75
2021/10/20 06:54:37;;;;;;;;;20.25;16.00;;;;;;;;5023025;28;45369;-73
2021/10/20 06:57:02;;;;;;;;;13.75;13.25;;;;;;;;5016800;28;45352;-69
2021/10/20 06:59:27;;;;;;;;;15.25;15.25;;;;;;;;5016369;28;45324;-67
2021/10/20 07:01:53;;;;;;;;;15.00;14.00;;;;;;;;5016912;28;45377;-67
2021/10/20 07:04:18;;;;;;;;;17.00;14.50;;;;;;;;5015081;28;47264;-69
2021/10/20 07:06:43;;;;;;;;;21.00;18.00;;;;;;;;5016558;28;45268;-68
2021/10/20 07:09:08;;;;;;;;;17.50;15.00;;;;;;;;5016770;28;45339;-67
2021/10/20 07:11:34;;;;;;;;;16.50;16.00;;;;;;;;5015269;28;45308;-69
2021/10/20 07:13:59;;;;;;;;;18.50;18.50;;;;;;;;5016249;28;45715;-66
2021/10/20 07:16:24;;;;;;;;;17.50;16.00;;;;;;;;5016033;28;45240;-66
2021/10/20 07:18:50;;;;;;;;;17.50;14.75;;;;;;;;5016233;28;45322;-66
2021/10/20 07:21:16;;;;;;;;;18.25;16.00;;;;;;;;5016967;28;45351;-73
2021/10/20 07:23:41;;;;;;;;;18.75;17.00;;;;;;;;5016287;28;46273;-74
2021/10/20 07:26:06;;;;;;;;;23.00;18.50;;;;;;;;5015495;28;45387;-73
2021/10/20 07:28:32;;;;;;;;;17.00;15.00;;;;;;;;5016606;28;46084;-72
2021/10/20 07:30:57;;;;;;;;;16.75;16.25;;;;;;;;5016494;28;45540;-71
2021/10/20 07:33:23;;;;;;;;;15.50;14.75;;;;;;;;5016414;28;45493;-66
2021/10/20 07:35:48;;;;;;;;;17.25;17.25;;;;;;;;5016133;28;45610;-67
2021/10/20 07:38:13;;;;;;;;;16.75;15.50;;;;;;;;5016377;28;45382;-66
2021/10/20 07:40:38;;;;;;;;;15.50;15.50;;;;;;;;5016226;28;45366;-67
2021/10/20 07:43:04;;;;;;;;;20.50;18.50;;;;;;;;5015675;28;46221;-68
2021/10/20 07:45:29;;;;;;;;;17.25;15.50;;;;;;;;5015607;28;45540;-69
2021/10/20 07:47:54;;;;;;;;;18.00;17.50;;;;;;;;5016045;28;45395;-67
2021/10/20 07:50:20;;;;;;;;;18.25;17.75;;;;;;;;5016277;28;45318;-67
2021/10/20 07:52:49;;;;;;;;;19.50;19.50;;;;;;;;5016115;28;45554;-70
2021/10/20 07:55:15;;;;;;;;;19.75;17.75;;;;;;;;5016125;28;45222;-66
2021/10/20 07:57:40;;;;;;;;;20.75;18.75;;;;;;;;5014222;28;45537;-69
2021/10/20 08:00:06;;;;;;;;;23.25;19.75;;;;;;;;5015916;28;45510;-63
2021/10/20 08:02:32;;;;;;;;;20.25;17.75;;;;;;;;5015728;28;47253;-67
2021/10/20 08:04:57;;;;;;;;;17.75;16.00;;;;;;;;5013901;28;45379;-68
2021/10/20 08:07:22;;;;;;;;;19.75;17.50;;;;;;;;5015592;28;45433;-68
2021/10/20 08:09:48;;;;;;;;;24.50;18.75;;;;;;;;5014324;28;45334;-68
2021/10/20 08:12:13;;;;;;;;;19.00;15.50;;;;;;;;5015308;28;45265;-67
2021/10/20 08:14:41;;;;;;;;;15.50;14.25;;;;;;;;5015519;28;45375;-68
2021/10/20 08:17:06;;;;;;;;;21.75;17.75;;;;;;;;5015500;28;45465;-68
2021/10/20 08:19:31;;;;;;;;;16.25;13.25;;;;;;;;5015534;28;45333;-68
2021/10/20 08:21:57;;;;;;;;;18.50;17.50;;;;;;;;5015182;28;45599;-67
2021/10/20 08:24:22;;;;;;;;;20.50;19.00;;;;;;;;5014988;28;45226;-66
2021/10/20 08:26:47;;;;;;;;;20.00;20.00;;;;;;;;5015463;28;45405;-67
2021/10/20 08:29:12;;;;;;;;;19.25;16.50;;;;;;;;5015500;28;45356;-64
2021/10/20 08:31:37;;;;;;;;;18.00;16.75;;;;;;;;5015125;28;46346;-66
2021/10/20 08:34:03;;;;;;;;;19.25;18.00;;;;;;;;5015010;28;45276;-63
2021/10/20 08:36:28;;;;;;;;;18.25;18.25;;;;;;;;5014116;28;45273;-68
2021/10/20 08:38:53;;;;;;;;;20.75;20.75;;;;;;;;5015502;28;45538;-68
2021/10/20 08:41:19;;;;;;;;;18.00;16.25;;;;;;;;5013955;28;46161;-66
2021/10/20 08:43:45;;;;;;;;;20.75;17.75;;;;;;;;5015115;28;45273;-69
2021/10/20 08:46:10;;;;;;;;;15.00;15.00;;;;;;;;5015248;28;45371;-68
2021/10/20 08:48:37;;;;;;;;;22.00;17.75;;;;;;;;5015057;28;45458;-69
2021/10/20 08:51:03;;;;;;;;;22.50;19.75;;;;;;;;5014796;28;45675;-69
2021/10/20 08:53:29;;;;;;;;;20.00;17.25;;;;;;;;5014396;28;45369;-68
2021/10/20 08:55:54;;;;;;;;;19.50;17.50;;;;;;;;5014245;28;45394;-67
2021/10/20 08:58:20;;;;;;;;;21.25;18.50;;;;;;;;5013607;28;45508;-70
2021/10/20 09:00:46;;;;;;;;;17.75;14.50;;;;;;;;5014522;28;47843;-68
2021/10/20 09:03:12;;;;;;;;;23.75;17.75;;;;;;;;5014603;28;45407;-69
2021/10/20 09:05:37;;;;;;;;;24.75;16.50;;;;;;;;5014791;28;45402;-66
2021/10/20 09:08:03;;;;;;;;;20.25;18.25;;;;;;;;5014735;28;45560;-69
2021/10/20 09:10:30;;;;;;;;;20.50;18.50;;;;;;;;5014299;28;48171;-66
2021/10/20 09:12:55;;;;;;;;;19.25;17.25;;;;;;;;5014502;28;45352;-68
2021/10/20 09:15:23;;;;;;;;;27.50;20.00;;;;;;;;5014880;28;45407;-65
2021/10/20 09:17:51;;;;;;;;;24.25;20.75;;;;;;;;5015167;28;45338;-66
2021/10/20 09:20:19;;;;;;;;;21.75;18.50;;;;;;;;5014094;28;46404;-64
2021/10/20 09:22:55;;;;;;;;;23.25;19.25;;;;;;;;5014412;28;45210;-67
2021/10/20 09:25:21;;;;;;;;;25.50;22.00;;;;;;;;5015046;28;45513;-66
2021/10/20 09:27:46;;;;;;;;;29.50;28.25;;;;;;;;5014366;28;45437;-64
2021/10/20 09:30:12;;;;;;;;;24.75;19.50;;;;;;;;5014235;28;46550;-65
2021/10/20 09:32:38;;;;;;;;;24.25;20.75;;;;;;;;5013036;28;45509;-65
2021/10/20 09:35:04;;;;;;;;;22.25;20.00;;;;;;;;5013084;28;45500;-67
2021/10/20 09:37:30;;;;;;;;;24.25;16.75;;;;;;;;5014464;28;45422;-65
2021/10/20 09:40:05;;;;;;;;;21.25;20.25;;;;;;;;5012879;28;46842;-68
2021/10/20 09:42:41;;;;;;;;;24.25;21.00;;;;;;;;5014123;28;45366;-65
2021/10/20 09:45:06;;;;;;;;;23.25;21.00;;;;;;;;5014173;28;45384;-66
2021/10/20 09:47:31;;;;;;;;;23.00;19.25;;;;;;;;5014563;28;45249;-66
2021/10/20 09:49:57;;;;;;;;;22.50;18.25;;;;;;;;5017666;28;46267;-63
2021/10/20 09:52:23;;;;;;;;;22.75;19.00;;;;;;;;5018277;28;45197;-65
2021/10/20 09:54:49;;;;;;;;;25.75;21.75;;;;;;;;5017892;28;45228;-65
2021/10/20 09:57:15;;;;;;;;;28.00;25.50;;;;;;;;5016655;28;45634;-70
2021/10/20 09:59:41;;;;;;;;;22.75;21.00;;;;;;;;5017710;28;45250;-65
2021/10/20 10:02:07;;;;;;;;;22.75;21.00;;;;;;;;5017563;28;45412;-67
2021/10/20 10:04:32;;;;;;;;;21.00;21.00;;;;;;;;5017555;28;45332;-64
2021/10/20 10:06:58;;;;;;;;;27.00;25.25;;;;;;;;5016192;28;45495;-64
2021/10/20 10:09:23;;;;;;;;;20.00;19.00;;;;;;;;5017503;28;46052;-65
2021/10/20 10:11:52;;;;;;;;;21.25;18.75;;;;;;;;5016893;28;45375;-65
2021/10/20 10:14:21;;;;;;;;;20.00;18.25;;;;;;;;5017467;28;45181;-70
2021/10/20 10:16:47;;;;;;;;;18.25;17.75;;;;;;;;4999773;28;45605;-69
2021/10/20 10:19:13;;;;;;;;;25.00;19.75;;;;;;;;5016755;28;46417;-66
2021/10/20 10:21:42;;;;;;;;;17.25;16.75;;;;;;;;5016998;28;45342;-65
2021/10/20 10:24:13;;;;;;;;;18.50;18.50;;;;;;;;5015890;28;45302;-67
2021/10/20 10:26:56;;;;;;;;;22.75;18.25;;;;;;;;5017206;28;45251;-68
2021/10/20 10:29:22;;;;;;;;;21.25;18.75;;;;;;;;5017026;28;45471;-68
2021/10/20 10:31:49;;;;;;;;;29.75;26.75;;;;;;;;5016964;28;45452;-64
2021/10/20 10:34:34;;;;;;;;;28.50;24.50;;;;;;;;5017084;28;45266;-68
2021/10/20 10:37:00;;;;;;;;;20.00;17.25;;;;;;;;5017021;28;45261;-67
2021/10/20 10:39:30;;;;;;;;;19.00;17.50;;;;;;;;5015472;28;48415;-64
2021/10/20 10:41:58;;;;;;;;;15.75;15.50;;;;;;;;5015729;28;45297;-66
2021/10/20 10:44:25;;;;;;;;;18.50;17.25;;;;;;;;5017001;28;45323;-65
2021/10/20 10:46:54;;;;;;;;;19.50;16.25;;;;;;;;5016615;28;45474;-66
2021/10/20 10:49:32;;;;;;;;;18.00;17.00;;;;;;;;5016938;28;46231;-67
2021/10/20 10:52:03;;;;;;;;;20.75;18.00;;;;;;;;5017247;28;45356;-65
2021/10/20 10:54:35;;;;;;;;;17.50;15.50;;;;;;;;5016874;28;45418;-68
2021/10/20 10:57:14;;;;;;;;;23.00;16.50;;;;;;;;5017059;28;45293;-66
2021/10/20 10:59:52;;;;;;;;;18.00;14.75;;;;;;;;5015511;28;45925;-68
2021/10/20 11:02:36;;;;;;;;;20.25;17.75;;;;;;;;5016384;28;45438;-65
2021/10/20 11:05:02;;;;;;;;;14.00;13.00;;;;;;;;5016421;28;45395;-66
2021/10/20 11:07:29;;;;;;;;;13.00;12.25;;;;;;;;5016496;28;45398;-69
2021/10/20 11:09:55;;;;;;;;;13.75;13.25;;;;;;;;5016182;28;46191;-70
2021/10/20 11:12:23;;;;;;;;;13.25;13.25;;;;;;;;5015955;28;45256;-67
2021/10/20 11:14:49;;;;;;;;;13.00;12.00;;;;;;;;5016696;28;45411;-69
2021/10/20 11:17:16;;;;;;;;;16.00;13.50;;;;;;;;5016428;28;45251;-67
2021/10/20 11:19:42;;;;;;;;;18.50;13.75;;;;;;;;5015960;28;46854;-67
2021/10/20 11:22:07;;;;;;;;;14.50;13.25;;;;;;;;5016145;28;45431;-68
2021/10/20 11:24:33;;;;;;;;;14.75;13.00;;;;;;;;5016698;28;45209;-70
2021/10/20 11:27:02;;;;;;;;;17.00;14.00;;;;;;;;5016656;28;45323;-70
2021/10/20 11:29:27;;;;;;;;;12.75;12.25;;;;;;;;5016458;28;46452;-65
2021/10/20 11:31:54;;;;;;;;;17.00;14.75;;;;;;;;5016021;28;45194;-67
2021/10/20 11:34:20;;;;;;;;;15.50;12.25;;;;;;;;5014614;28;45347;-67
2021/10/20 11:36:45;;;;;;;;;14.00;12.00;;;;;;;;5014727;28;45530;-67
2021/10/20 11:39:12;;;;;;;;;14.00;13.75;;;;;;;;5015770;28;46554;-67
2021/10/20 11:41:46;;;;;;;;;13.25;13.00;;;;;;;;5014804;28;45279;-70
2021/10/20 11:44:11;;;;;;;;;14.75;14.00;;;;;;;;5015427;28;45375;-67
2021/10/20 11:46:37;;;;;;;;;13.25;12.00;;;;;;;;5015613;28;45613;-68
2021/10/20 11:49:02;;;;;;;;;10.00;10.00;;;;;;;;5015361;28;46675;-68
2021/10/20 11:51:29;;;;;;;;;12.50;12.50;;;;;;;;5015929;28;45380;-67
2021/10/20 11:53:55;;;;;;;;;14.25;12.25;;;;;;;;5015786;28;45339;-65
2021/10/20 11:56:20;;;;;;;;;14.50;9.75;;;;;;;;5015748;28;45330;-66
2021/10/20 11:58:46;;;;;;;;;72.00;58.50;;;;;;;;5015169;28;46447;-67
2021/10/20 12:01:12;;;;;;;;;11.00;10.50;;;;;;;;5013857;28;45337;-67
2021/10/20 12:03:41;;;;;;;;;11.25;11.00;;;;;;;;5015136;28;45478;-64
2021/10/20 12:06:08;;;;;;;;;12.25;10.00;;;;;;;;5015794;28;45399;-64
2021/10/20 12:08:34;;;;;;;;;7.00;7.00;;;;;;;;5014857;28;46549;-66
2021/10/20 12:11:00;;;;;;;;;10.50;9.50;;;;;;;;5015215;28;45452;-64
2021/10/20 12:13:26;;;;;;;;;10.00;9.25;;;;;;;;5013656;28;45317;-65
2021/10/20 12:15:51;;;;;;;;;15.75;11.75;;;;;;;;5015248;28;45237;-68
2021/10/20 12:18:17;;;;;;;;;11.00;10.00;;;;;;;;5014853;28;45399;-67
2021/10/20 12:20:48;;;;;;;;;12.25;10.50;;;;;;;;5015514;28;45390;-65
2021/10/20 12:23:13;;;;;;;;;13.25;12.00;;;;;;;;5013599;28;45618;-65
2021/10/20 12:25:38;;;;;;;;;9.00;9.00;;;;;;;;5014850;28;45280;-65
2021/10/20 12:28:04;;;;;;;;;14.00;10.00;;;;;;;;5014663;28;45595;-63
2021/10/20 12:30:29;;;;;;;;;14.75;11.75;;;;;;;;5014469;28;45338;-68
2021/10/20 12:32:54;;;;;;;;;11.75;9.00;;;;;;;;5014670;28;45451;-64
2021/10/20 12:35:21;;;;;;;;;12.75;10.25;;;;;;;;5013639;28;45401;-67
2021/10/20 12:37:48;;;;;;;;;9.00;8.50;;;;;;;;5014617;28;45308;-65
2021/10/20 12:40:20;;;;;;;;;10.00;9.00;;;;;;;;5014931;28;45479;-67
2021/10/20 12:42:49;;;;;;;;;9.50;7.25;;;;;;;;5014827;28;45338;-64
2021/10/20 12:45:15;;;;;;;;;10.25;8.25;;;;;;;;5014664;28;45408;-64
2021/10/20 12:47:41;;;;;;;;;6.50;6.50;;;;;;;;5014275;28;45486;-64
2021/10/20 12:50:07;;;;;;;;;11.25;9.25;;;;;;;;5014545;28;45387;-64
2021/10/20 12:52:35;;;;;;;;;7.00;5.75;;;;;;;;5015340;28;45342;-64
2021/10/20 12:55:00;;;;;;;;;7.25;7.25;;;;;;;;5015650;28;45434;-66
2021/10/20 12:57:26;;;;;;;;;10.00;7.50;;;;;;;;5013276;28;46224;-64
2021/10/20 12:59:51;;;;;;;;;11.25;8.50;;;;;;;;5014772;28;45190;-66
2021/10/20 13:02:16;;;;;;;;;9.25;8.75;;;;;;;;5015135;28;45243;-67
2021/10/20 13:04:48;;;;;;;;;16.75;14.25;;;;;;;;5013627;28;45293;-65
2021/10/20 13:07:14;;;;;;;;;9.50;9.50;;;;;;;;5014667;28;46467;-67
2021/10/20 13:09:39;;;;;;;;;13.00;9.75;;;;;;;;5014726;28;45432;-64
2021/10/20 13:12:04;;;;;;;;;7.75;7.75;;;;;;;;5015239;28;45327;-64
2021/10/20 13:14:29;;;;;;;;;11.50;11.50;;;;;;;;5015320;28;45295;-64
2021/10/20 13:16:55;;;;;;;;;13.25;12.00;;;;;;;;5014790;28;45469;-66
2021/10/20 13:19:20;;;;;;;;;10.50;9.00;;;;;;;;5014676;28;45459;-64
2021/10/20 13:21:46;;;;;;;;;13.75;9.00;;;;;;;;5014931;28;45159;-65
2021/10/20 13:24:11;;;;;;;;;11.75;10.50;;;;;;;;5017950;28;45186;-65
2021/10/20 13:26:36;;;;;;;;;9.25;9.25;;;;;;;;5018211;28;45661;-65
2021/10/20 13:29:02;;;;;;;;;9.25;8.75;;;;;;;;5018417;28;45241;-65
2021/10/20 13:31:27;;;;;;;;;9.50;8.00;;;;;;;;5018410;28;45178;-65
2021/10/20 13:33:52;;;;;;;;;21.75;19.25;;;;;;;;5017138;28;45250;-64
2021/10/20 13:36:17;;;;;;;;;23.00;22.00;;;;;;;;5016588;28;46245;-64
2021/10/20 13:38:44;;;;;;;;;15.25;11.25;;;;;;;;5017925;28;45224;-64
2021/10/20 13:41:09;;;;;;;;;18.50;18.25;;;;;;;;5017854;28;45235;-64
2021/10/20 13:43:38;;;;;;;;;12.25;7.75;;;;;;;;5018265;28;45468;-65
2021/10/20 13:46:04;;;;;;;;;9.75;9.75;;;;;;;;5018229;28;45494;-65
2021/10/20 13:48:29;;;;;;;;;11.75;9.25;;;;;;;;5016213;28;45556;-63
2021/10/20 13:50:54;;;;;;;;;14.00;13.50;;;;;;;;5017969;28;45306;-66
2021/10/20 13:53:19;;;;;;;;;15.00;12.00;;;;;;;;5018051;28;45488;-68
2021/10/20 13:55:44;;;;;;;;;11.50;9.75;;;;;;;;5017648;28;46512;-66
2021/10/20 13:58:10;;;;;;;;;11.50;10.00;;;;;;;;5017709;28;45458;-67
2021/10/20 14:00:35;;;;;;;;;9.00;9.00;;;;;;;;5018080;28;45379;-67
2021/10/20 14:03:00;;;;;;;;;16.75;14.00;;;;;;;;5017967;28;45302;-68
2021/10/20 14:05:26;;;;;;;;;11.00;11.00;;;;;;;;5017452;28;46447;-67
2021/10/20 14:07:51;;;;;;;;;9.25;9.25;;;;;;;;5017587;28;45369;-66
2021/10/20 14:10:16;;;;;;;;;9.75;9.00;;;;;;;;5017256;28;45423;-67
2021/10/20 14:12:42;;;;;;;;;9.75;9.75;;;;;;;;5017782;28;45200;-66